सभी
Bellevue Airport (Bellevue, Western Australia) YBLU मौसम
There is no TAF data available at YBLU. Showing TAF data for YLST (17 mi S).
LER Terminal Area Forecast (no data for YBLU)
| Date | Time (AWST) | Flight Rules | Wind Dir. | Speed | Type | Height AGL (ft) | Visibility | Remarks | ||||||
|---|---|---|---|---|---|---|---|---|---|---|---|---|---|---|
| 04-मई | 20:00 | VFR | 110° | 10 kt | Clouds and Visibility are OK | >= 6 miles | ||||||||
| 04-मई | 19:00 | VFR | 110° | 10 kt | Clouds and Visibility are OK | >= 6 miles | ||||||||
There is no METAR data available at YBLU. Showing METAR data for YLST (17 mi S).
Recent LER METAR history (no data for YBLU)
| Date | Time (AWST) | Flight Rules | Wind Dir. | Speed | Type | Height AGL (ft) | Visibility | Temp (°C) | Temp (°F) | Dew Point (°C) | Dew Point (°F) | Rel. Humid. | Pressure | Density Altitude | Remarks |
|---|---|---|---|---|---|---|---|---|---|---|---|---|---|---|---|
| 04-मई | 19:00 | VFR | 110° | 5 kt | 10000 meters | 16° | 60° | 5° | 41° | 48% | 1024 mb | 1,670 ft | |||
| 04-मई | 18:00 | VFR | 120° | 6 kt | 10000 meters | 18° | 64° | 4° | 39° | 39% | 1023 mb | 1,939 ft | |||
| 04-मई | 17:00 | VFR | 120° | 9 kt | 10000 meters | 20° | 68° | 4° | 39° | 35% | 1022 mb | 2,209 ft | |||
| 04-मई | 16:00 | VFR | 100° | 10 kt | 10000 meters | 21° | 69° | 4° | 39° | 33% | 1022 mb | 2,329 ft | |||
| 04-मई | 15:00 | VFR | 100° | 8 kt | 10000 meters | 20° | 68° | 4° | 39° | 35% | 1022 mb | 2,209 ft | |||
| 04-मई | 14:00 | VFR | 120° | 7 kt | 10000 meters | 20° | 68° | 5° | 41° | 37% | 1023 mb | 2,179 ft | |||
| 04-मई | 13:00 | VFR | 100° | 10 kt | 10000 meters | 19° | 66° | 5° | 41° | 40% | 1023 mb | 2,059 ft | |||
| 04-मई | 12:00 | VFR | 70° | 10 kt | 10000 meters | 19° | 66° | 5° | 41° | 40% | 1025 mb | 2,000 ft | |||
| 04-मई | 11:00 | VFR | 100° | 11 kt | Few |
4,000 |
10000 meters | 18° | 64° | 6° | 42° | 45% | 1026 mb | 1,851 ft | |
| 04-मई | 10:00 | VFR | 90° | 12 kt | Few |
3,700 |
10000 meters | 17° | 62° | 6° | 42° | 48% | 1026 mb | 1,731 ft | |
| 04-मई | 09:00 | VFR | 110° | 12 kt | 10000 meters | 15° | 59° | 6° | 42° | 55% | 1026 mb | 1,491 ft | |||
| 04-मई | 08:00 | VFR | 120° | 8 kt | 10000 meters | 12° | 53° | 6° | 42° | 67% | 1026 mb | 1,131 ft | |||
| 04-मई | 07:00 | VFR | 110° | 4 kt | 10000 meters | 9° | 48° | 6° | 42° | 81% | 1025 mb | 800 ft | |||
| 04-मई | 06:00 | VFR | 120° | 4 kt | 10000 meters | 8° | 46° | 5° | 41° | 81% | 1024 mb | 710 ft | |||
| 04-मई | 05:00 | VFR | Calm | 10000 meters | 8° | 46° | 6° | 42° | 87% | 1024 mb | 710 ft | ||||
| 04-मई | 04:00 | VFR | 120° | 5 kt | 10000 meters | 9° | 48° | 6° | 42° | 81% | 1024 mb | 830 ft | |||
| 04-मई | 03:00 | VFR | 110° | 4 kt | 10000 meters | 9° | 48° | 6° | 42° | 81% | 1024 mb | 830 ft | |||
| 04-मई | 02:00 | VFR | 110° | 5 kt | 10000 meters | 10° | 50° | 5° | 41° | 71% | 1024 mb | 950 ft | |||
| 04-मई | 01:00 | VFR | 120° | 5 kt | 10000 meters | 11° | 51° | 5° | 41° | 66% | 1024 mb | 1,070 ft | |||
| 04-मई | 00:00 | VFR | 120° | 5 kt | 10000 meters | 11° | 51° | 5° | 41° | 66% | 1023 mb | 1,099 ft | |||
| 03-मई | 23:00 | VFR | 70° | 6 kt | 10000 meters | 12° | 53° | 5° | 41° | 62% | 1024 mb | 1,190 ft | |||
| 03-मई | 22:00 | VFR | 110° | 7 kt | 10000 meters | 13° | 55° | 4° | 39° | 54% | 1024 mb | 1,310 ft | |||
| 03-मई | 21:00 | VFR | 120° | 6 kt | 10000 meters | 14° | 57° | 4° | 39° | 51% | 1023 mb | 1,459 ft | |||
| 03-मई | 20:00 | VFR | 130° | 6 kt | 10000 meters | 15° | 59° | 3° | 37° | 44% | 1023 mb | 1,579 ft |
लॉगिन
| Your browser is unsupported. अपना ब्राऊजर अपग्रेड करें |
